Gandhi — A8OK8 — position and weather

sailwx.info

Track history (hours):
 
Tides and Currents Weather Stations Pressure Air Temp Water Temp Dewpoint Dewpoint Depression Visibility Wind Speed Wind Dir Waves Ship Positions

Gandhi

Last reported at 2014-Oct-14 16:08 UTC. Time now 2014-Oct-22 12:27 UTC.
Position N 50°34' E 000°16'.

Length 180 m; draft 10.2 m.

Type: Ship. MMSI: 636013645.

Date/timePositionNaut miles runAvg speedWind from/ knotsBaromVisibWave heightAir tempDewpointWater temp
2014-Oct-14 16:08N 50°34' E 000°16'712.3
2014-Oct-14 15:34N 50°36' E 000°27'1111.4
2014-Oct-14 14:34N 50°41' E 000°43'2511.0
2014-Oct-14 12:19N 50°56' E 001°13'1012.5
2014-Oct-14 11:34N 51°03' E 001°25'1413.7
2014-Oct-14 10:33N 51°11' E 001°42'1313.0
2014-Oct-14 09:33N 51°22' E 001°54'1211.9
2014-Oct-14 08:33N 51°31' E 002°05'1514.8
2014-Oct-14 07:33N 51°43' E 002°21'72 9.8
2014-Oct-14 00:08N 52°31' E 003°48'712.2
2014-Oct-13 23:34N 52°31' E 003°60'1212.2
2014-Oct-13 22:34N 52°30' E 004°20'1010.0
2014-Oct-13 21:34N 52°28' E 004°36'1 1.1
2014-Oct-13 20:34N 52°28' E 004°38'6 5.9
2014-Oct-13 19:33N 52°25' E 004°46'1 0.8
2014-Oct-13 18:31N 52°25' E 004°47'0 0.0
2014-Oct-13 17:31N 52°25' E 004°47'0 0.0
2014-Oct-13 16:31N 52°25' E 004°47'0 0.0
2014-Oct-13 15:31N 52°25' E 004°47'0 0.0
2014-Oct-13 14:31N 52°25' E 004°47'0 0.0
2014-Oct-13 13:28N 52°25' E 004°47'0 0.0
2014-Oct-13 12:31N 52°25' E 004°47'0 0.0
2014-Oct-13 11:31N 52°25' E 004°47'0 0.0
2014-Oct-13 10:25N 52°25' E 004°47'0 0.0
2014-Oct-13 09:31N 52°25' E 004°47'0 0.0
2014-Oct-13 08:31N 52°25' E 004°47'0 0.0
2014-Oct-13 07:28N 52°25' E 004°47'0 0.0
2014-Oct-13 06:31N 52°25' E 004°47'0 0.0
2014-Oct-13 05:31N 52°25' E 004°47'0 0.0
2014-Oct-13 04:31N 52°25' E 004°47'0 0.0
2014-Oct-13 03:25N 52°25' E 004°47'0 0.0
2014-Oct-13 02:31N 52°25' E 004°47'0 0.0
2014-Oct-13 01:31N 52°25' E 004°47'0 0.0
2014-Oct-13 00:31N 52°25' E 004°47'0 0.0
2014-Oct-12 23:31N 52°25' E 004°47'0 0.0
2014-Oct-12 22:31N 52°25' E 004°47'0 0.0
2014-Oct-12 21:31N 52°25' E 004°47'0 0.0
2014-Oct-12 20:31N 52°25' E 004°47'0 0.0
2014-Oct-12 19:28N 52°25' E 004°47'0 0.4
2014-Oct-12 18:33N 52°25' E 004°46'2 1.9
2014-Oct-12 17:33N 52°24' E 004°49'0 0.0
2014-Oct-12 16:33N 52°24' E 004°49'0 0.0
2014-Oct-12 15:33N 52°24' E 004°49'0 0.0
2014-Oct-12 14:33N 52°24' E 004°49'0 0.0
2014-Oct-12 13:30N 52°24' E 004°49'0 0.0
2014-Oct-12 12:33N 52°24' E 004°49'0 0.0
2014-Oct-12 11:33N 52°24' E 004°49'0 0.0
2014-Oct-12 10:33N 52°24' E 004°49'0 0.0
2014-Oct-12 09:30N 52°24' E 004°49'0 0.0
2014-Oct-12 08:33N 52°24' E 004°49'0 0.0
2014-Oct-12 07:30N 52°24' E 004°49'0 0.0
2014-Oct-12 06:33N 52°24' E 004°49'0 0.0
2014-Oct-12 05:33N 52°24' E 004°49'0 0.0
2014-Oct-12 04:33N 52°24' E 004°49'0 0.0
2014-Oct-12 03:30N 52°24' E 004°49'0 0.0
2014-Oct-12 02:33N 52°24' E 004°49'0 0.0
2014-Oct-12 01:33N 52°24' E 004°49'0 0.0
2014-Oct-12 00:33N 52°24' E 004°49'0 0.0
2014-Oct-11 23:33N 52°24' E 004°49'0 0.0
2014-Oct-11 22:33N 52°24' E 004°49'0 0.0
2014-Oct-11 21:33N 52°24' E 004°49'0 0.0
2014-Oct-11 20:33N 52°24' E 004°49'0 0.0
2014-Oct-11 19:33N 52°24' E 004°49'0 0.0
2014-Oct-11 18:33N 52°24' E 004°49'0 0.0
2014-Oct-11 17:33N 52°24' E 004°49'0 0.0
2014-Oct-11 16:33N 52°24' E 004°49'0 0.0
2014-Oct-11 15:33N 52°24' E 004°49'0 0.0
2014-Oct-11 14:33N 52°24' E 004°49'0 0.0
2014-Oct-11 13:33N 52°24' E 004°49'0 0.0
2014-Oct-11 12:33N 52°24' E 004°49'0 0.0
2014-Oct-11 11:33N 52°24' E 004°49'0 0.0
2014-Oct-11 10:33N 52°24' E 004°49'0 0.0
2014-Oct-11 09:33N 52°24' E 004°49'0 0.0
2014-Oct-11 08:30N 52°24' E 004°49'0 0.0
2014-Oct-11 07:33N 52°24' E 004°49'0 0.0
2014-Oct-11 06:33N 52°24' E 004°49'0 0.0
2014-Oct-11 05:33N 52°24' E 004°49'0 0.0
2014-Oct-11 04:33N 52°24' E 004°49'0 0.0
2014-Oct-11 03:33N 52°24' E 004°49'0 0.0
2014-Oct-11 02:33N 52°24' E 004°49'4 3.9
2014-Oct-11 01:34N 52°26' E 004°44'5 4.9
2014-Oct-11 00:34N 52°28' E 004°36'0 0.0
2014-Oct-10 23:34N 52°28' E 004°36'3 3.4
2014-Oct-10 22:34N 52°28' E 004°31'1111.4
2014-Oct-10 21:33N 52°29' E 004°12'2 2.1
2014-Oct-10 20:32N 52°28' E 004°09'0 0.1
2014-Oct-10 19:32N 52°28' E 004°09'0 0.0
2014-Oct-10 18:32N 52°28' E 004°09'0 0.0
2014-Oct-10 17:32N 52°28' E 004°09'0 0.0
2014-Oct-10 16:23N 52°28' E 004°09'0 0.0
2014-Oct-10 15:32N 52°28' E 004°09'0 0.0
2014-Oct-10 14:29N 52°28' E 004°09'0 0.0
2014-Oct-10 13:26N 52°28' E 004°09'1 0.8
2014-Oct-10 12:33N 52°28' E 004°08'1010.2
2014-Oct-10 11:33N 52°26' E 003°52'1312.0
2014-Oct-10 10:30N 52°22' E 003°32'1010.2
2014-Oct-10 09:31N 52°15' E 003°20'39 9.1
2014-Oct-10 05:11N 51°46' E 002°37'910.8
2014-Oct-10 04:23N 51°40' E 002°28'911.3
2014-Oct-10 03:33N 51°33' E 002°18'1211.9
2014-Oct-10 02:33N 51°24' E 002°05'7 7.4
2014-Oct-10 01:33N 51°27' E 001°54'7 7.3
2014-Oct-10 00:33N 51°29' E 001°43'9 9.1
2014-Oct-09 23:34N 51°26' E 001°29'8 8.2
2014-Oct-09 22:33N 51°29' E 001°17'1211.4
2014-Oct-09 21:32N 51°29' E 000°59'1312.9
2014-Oct-09 20:33N 51°30' E 000°38'1211.5
2014-Oct-09 19:34N 51°27' E 000°20'2 1.8
2014-Oct-09 18:34N 51°28' E 000°18'0 0.0
2014-Oct-09 17:34N 51°28' E 000°18'0 0.0
2014-Oct-09 14:11N 51°28' E 000°18'0 0.0
2014-Oct-09 13:34N 51°28' E 000°18'0 0.0
2014-Oct-09 12:34N 51°28' E 000°18'0 0.0
2014-Oct-09 11:33N 51°28' E 000°18'0 0.0
2014-Oct-09 10:34N 51°28' E 000°18'0 0.0
2014-Oct-09 09:34N 51°28' E 000°18'0 0.0
2014-Oct-09 08:34N 51°28' E 000°18'0 0.0
2014-Oct-09 07:34N 51°28' E 000°18'0 0.0
2014-Oct-09 06:34N 51°28' E 000°18'0 0.0
2014-Oct-09 05:34N 51°28' E 000°18'0 0.0
2014-Oct-09 04:34N 51°28' E 000°18'0 0.0
2014-Oct-09 03:34N 51°28' E 000°18'0 0.0
2014-Oct-09 02:34N 51°28' E 000°18'0 0.0
2014-Oct-09 01:34N 51°28' E 000°18'0 0.0
2014-Oct-09 00:34N 51°28' E 000°18'0 0.0
2014-Oct-08 23:34N 51°28' E 000°18'0 0.0
2014-Oct-08 22:34N 51°28' E 000°18'0 0.0
2014-Oct-08 21:34N 51°28' E 000°18'0 0.0
2014-Oct-08 20:34N 51°28' E 000°18'0 0.0
2014-Oct-08 19:34N 51°28' E 000°18'0 0.0
2014-Oct-08 18:34N 51°28' E 000°18'0 0.0
2014-Oct-08 17:34N 51°28' E 000°18'0 0.0
2014-Oct-08 16:34N 51°28' E 000°18'0 0.0
2014-Oct-08 15:34N 51°28' E 000°18'0 0.0
2014-Oct-08 14:34N 51°28' E 000°18'0 0.0
2014-Oct-08 13:34N 51°28' E 000°18'0 0.0
2014-Oct-08 12:34N 51°28' E 000°18'0 0.0
2014-Oct-08 11:34N 51°28' E 000°18'0 0.0
2014-Oct-08 10:34N 51°28' E 000°18'0 0.0
2014-Oct-08 09:34N 51°28' E 000°18'0 0.0
2014-Oct-08 08:34N 51°28' E 000°18'0 0.0
2014-Oct-08 07:34N 51°28' E 000°18'0 0.0
2014-Oct-08 06:34N 51°28' E 000°18'0 0.0
2014-Oct-08 05:34N 51°28' E 000°18'0 0.0
2014-Oct-08 04:34N 51°28' E 000°18'0 0.0
2014-Oct-08 03:34N 51°28' E 000°18'0 0.0
2014-Oct-08 02:34N 51°28' E 000°18'0 0.0
2014-Oct-08 01:34N 51°28' E 000°18'0 0.0
2014-Oct-08 00:34N 51°28' E 000°18'0 0.0
2014-Oct-07 23:34N 51°28' E 000°18'0 0.0
2014-Oct-07 22:34N 51°28' E 000°18'0 0.0
2014-Oct-07 21:34N 51°28' E 000°18'0 0.0
2014-Oct-07 20:34N 51°28' E 000°18'0 0.0
2014-Oct-07 19:34N 51°28' E 000°18'0 0.0
2014-Oct-07 18:34N 51°28' E 000°18'0 0.0
2014-Oct-07 17:34N 51°28' E 000°18'0 0.0
2014-Oct-07 16:34N 51°28' E 000°18'0 0.0
2014-Oct-07 15:34N 51°28' E 000°18'0 0.0
2014-Oct-07 14:34N 51°28' E 000°18'0 0.0
2014-Oct-07 13:34N 51°28' E 000°18'0 0.0
2014-Oct-07 12:34N 51°28' E 000°18'3 3.2
2014-Oct-07 11:34N 51°27' E 000°23'9 8.5
2014-Oct-07 10:33N 51°30' E 000°36'1110.8
2014-Oct-07 09:33N 51°29' E 000°53'10 9.8
2014-Oct-07 08:33N 51°29' E 001°09'1010.2
2014-Oct-07 07:33N 51°29' E 001°25'5 5.1
2014-Oct-07 06:33N 51°32' E 001°32'0 0.4
2014-Oct-07 05:33N 51°32' E 001°31'0 0.2
2014-Oct-07 04:33N 51°32' E 001°32'0 0.0
2014-Oct-07 03:33N 51°32' E 001°32'0 0.0
2014-Oct-07 02:33N 51°32' E 001°32'0 0.0
2014-Oct-07 01:33N 51°32' E 001°32'0 0.0
2014-Oct-07 00:33N 51°32' E 001°31'0 0.1
2014-Oct-06 23:33N 51°32' E 001°31'0 0.1
2014-Oct-06 22:33N 51°32' E 001°31'0 0.1
2014-Oct-06 21:33N 51°32' E 001°31'0 0.0
2014-Oct-06 20:33N 51°32' E 001°31'0 0.0
2014-Oct-06 19:33N 51°32' E 001°31'0 0.0
2014-Oct-06 18:33N 51°32' E 001°31'0 0.1
2014-Oct-06 17:33N 51°32' E 001°31'0 0.1
2014-Oct-06 16:33N 51°32' E 001°31'0 0.0
2014-Oct-06 15:33N 51°32' E 001°31'0 0.0
2014-Oct-06 14:33N 51°32' E 001°31'0 0.0
2014-Oct-06 13:27N 51°32' E 001°31'0 0.0
2014-Oct-06 12:30N 51°32' E 001°32'0 0.0
2014-Oct-06 11:33N 51°32' E 001°31'0 0.1
2014-Oct-06 10:33N 51°32' E 001°31'0 0.0
2014-Oct-06 09:33N 51°32' E 001°31'0 0.0
2014-Oct-06 08:33N 51°32' E 001°31'0 0.1
2014-Oct-06 07:33N 51°32' E 001°31'0 0.0
2014-Oct-06 06:33N 51°32' E 001°31'0 0.0
2014-Oct-06 05:33N 51°32' E 001°31'0 0.0
2014-Oct-06 04:33N 51°32' E 001°31'0 0.2
2014-Oct-06 03:33N 51°32' E 001°32'0 0.1
2014-Oct-06 02:33N 51°32' E 001°32'0 0.0
2014-Oct-06 01:33N 51°32' E 001°32'0 0.0
2014-Oct-06 00:33N 51°32' E 001°32'0 0.0
2014-Oct-05 23:33N 51°32' E 001°32'0 0.1
2014-Oct-05 22:33N 51°32' E 001°31'0 0.1
2014-Oct-05 21:33N 51°32' E 001°31'0 0.0
2014-Oct-05 20:33N 51°32' E 001°31'0 0.0
2014-Oct-05 19:33N 51°32' E 001°31'0 0.0
2014-Oct-05 18:33N 51°32' E 001°31'0 0.0
2014-Oct-05 17:33N 51°32' E 001°31'0 0.0
2014-Oct-05 16:33N 51°32' E 001°31'0 0.0
2014-Oct-05 15:33N 51°32' E 001°31'0 0.1
2014-Oct-05 14:33N 51°32' E 001°32'4 4.1
2014-Oct-05 13:33N 51°32' E 001°38'1212.0
2014-Oct-05 12:34N 51°28' E 001°56'9 9.5
2014-Oct-05 11:34N 51°18' E 001°56'1414.1
2014-Oct-05 10:34N 51°08' E 001°42'1514.0
2014-Oct-05 09:29N 50°56' E 001°26'2512.8
2014-Oct-05 07:31N 50°34' E 001°07'1312.5
2014-Oct-05 06:29N 50°29' E 000°48'1413.5
2014-Oct-05 05:27N 50°25' E 000°27'  
Track history (hours):
 
Tides and Currents Weather Stations Pressure Air Temp Water Temp Dewpoint Dewpoint Depression Visibility Wind Speed Wind Dir Waves Ship Positions

Gandhi

Last reported at 2014-Oct-14 16:08 UTC. Time now 2014-Oct-22 12:27 UTC.
Position N 50°34' E 000°16'.

Length 180 m; draft 10.2 m.

Type: Ship. MMSI: 636013645.

Date/timePositionNaut miles runAvg speedWind from/ knotsBaromVisibWave heightAir tempDewpointWater temp
2014-Oct-14 16:08N 50°34' E 000°16'712.3
2014-Oct-14 15:34N 50°36' E 000°27'1111.4
2014-Oct-14 14:34N 50°41' E 000°43'2511.0
2014-Oct-14 12:19N 50°56' E 001°13'1012.5
2014-Oct-14 11:34N 51°03' E 001°25'1413.7
2014-Oct-14 10:33N 51°11' E 001°42'1313.0
2014-Oct-14 09:33N 51°22' E 001°54'1211.9
2014-Oct-14 08:33N 51°31' E 002°05'1514.8
2014-Oct-14 07:33N 51°43' E 002°21'72 9.8
2014-Oct-14 00:08N 52°31' E 003°48'712.2
2014-Oct-13 23:34N 52°31' E 003°60'1212.2
2014-Oct-13 22:34N 52°30' E 004°20'1010.0
2014-Oct-13 21:34N 52°28' E 004°36'1 1.1
2014-Oct-13 20:34N 52°28' E 004°38'6 5.9
2014-Oct-13 19:33N 52°25' E 004°46'1 0.8
2014-Oct-13 18:31N 52°25' E 004°47'0 0.0
2014-Oct-13 17:31N 52°25' E 004°47'0 0.0
2014-Oct-13 16:31N 52°25' E 004°47'0 0.0
2014-Oct-13 15:31N 52°25' E 004°47'0 0.0
2014-Oct-13 14:31N 52°25' E 004°47'0 0.0
2014-Oct-13 13:28N 52°25' E 004°47'0 0.0
2014-Oct-13 12:31N 52°25' E 004°47'0 0.0
2014-Oct-13 11:31N 52°25' E 004°47'0 0.0
2014-Oct-13 10:25N 52°25' E 004°47'0 0.0
2014-Oct-13 09:31N 52°25' E 004°47'0 0.0
2014-Oct-13 08:31N 52°25' E 004°47'0 0.0
2014-Oct-13 07:28N 52°25' E 004°47'0 0.0
2014-Oct-13 06:31N 52°25' E 004°47'0 0.0
2014-Oct-13 05:31N 52°25' E 004°47'0 0.0
2014-Oct-13 04:31N 52°25' E 004°47'0 0.0
2014-Oct-13 03:25N 52°25' E 004°47'0 0.0
2014-Oct-13 02:31N 52°25' E 004°47'0 0.0
2014-Oct-13 01:31N 52°25' E 004°47'0 0.0
2014-Oct-13 00:31N 52°25' E 004°47'0 0.0
2014-Oct-12 23:31N 52°25' E 004°47'0 0.0
2014-Oct-12 22:31N 52°25' E 004°47'0 0.0
2014-Oct-12 21:31N 52°25' E 004°47'0 0.0
2014-Oct-12 20:31N 52°25' E 004°47'0 0.0
2014-Oct-12 19:28N 52°25' E 004°47'0 0.4
2014-Oct-12 18:33N 52°25' E 004°46'2 1.9
2014-Oct-12 17:33N 52°24' E 004°49'0 0.0
2014-Oct-12 16:33N 52°24' E 004°49'0 0.0
2014-Oct-12 15:33N 52°24' E 004°49'0 0.0
2014-Oct-12 14:33N 52°24' E 004°49'0 0.0
2014-Oct-12 13:30N 52°24' E 004°49'0 0.0
2014-Oct-12 12:33N 52°24' E 004°49'0 0.0
2014-Oct-12 11:33N 52°24' E 004°49'0 0.0
2014-Oct-12 10:33N 52°24' E 004°49'0 0.0
2014-Oct-12 09:30N 52°24' E 004°49'0 0.0
2014-Oct-12 08:33N 52°24' E 004°49'0 0.0
2014-Oct-12 07:30N 52°24' E 004°49'0 0.0
2014-Oct-12 06:33N 52°24' E 004°49'0 0.0
2014-Oct-12 05:33N 52°24' E 004°49'0 0.0
2014-Oct-12 04:33N 52°24' E 004°49'0 0.0
2014-Oct-12 03:30N 52°24' E 004°49'0 0.0
2014-Oct-12 02:33N 52°24' E 004°49'0 0.0
2014-Oct-12 01:33N 52°24' E 004°49'0 0.0
2014-Oct-12 00:33N 52°24' E 004°49'0 0.0
2014-Oct-11 23:33N 52°24' E 004°49'0 0.0
2014-Oct-11 22:33N 52°24' E 004°49'0 0.0
2014-Oct-11 21:33N 52°24' E 004°49'0 0.0
2014-Oct-11 20:33N 52°24' E 004°49'0 0.0
2014-Oct-11 19:33N 52°24' E 004°49'0 0.0
2014-Oct-11 18:33N 52°24' E 004°49'0 0.0
2014-Oct-11 17:33N 52°24' E 004°49'0 0.0
2014-Oct-11 16:33N 52°24' E 004°49'0 0.0
2014-Oct-11 15:33N 52°24' E 004°49'0 0.0
2014-Oct-11 14:33N 52°24' E 004°49'0 0.0
2014-Oct-11 13:33N 52°24' E 004°49'0 0.0
2014-Oct-11 12:33N 52°24' E 004°49'0 0.0
2014-Oct-11 11:33N 52°24' E 004°49'0 0.0
2014-Oct-11 10:33N 52°24' E 004°49'0 0.0
2014-Oct-11 09:33N 52°24' E 004°49'0 0.0
2014-Oct-11 08:30N 52°24' E 004°49'0 0.0
2014-Oct-11 07:33N 52°24' E 004°49'0 0.0
2014-Oct-11 06:33N 52°24' E 004°49'0 0.0
2014-Oct-11 05:33N 52°24' E 004°49'0 0.0
2014-Oct-11 04:33N 52°24' E 004°49'0 0.0
2014-Oct-11 03:33N 52°24' E 004°49'0 0.0
2014-Oct-11 02:33N 52°24' E 004°49'4 3.9
2014-Oct-11 01:34N 52°26' E 004°44'5 4.9
2014-Oct-11 00:34N 52°28' E 004°36'0 0.0
2014-Oct-10 23:34N 52°28' E 004°36'3 3.4
2014-Oct-10 22:34N 52°28' E 004°31'1111.4
2014-Oct-10 21:33N 52°29' E 004°12'2 2.1
2014-Oct-10 20:32N 52°28' E 004°09'0 0.1
2014-Oct-10 19:32N 52°28' E 004°09'0 0.0
2014-Oct-10 18:32N 52°28' E 004°09'0 0.0
2014-Oct-10 17:32N 52°28' E 004°09'0 0.0
2014-Oct-10 16:23N 52°28' E 004°09'0 0.0
2014-Oct-10 15:32N 52°28' E 004°09'0 0.0
2014-Oct-10 14:29N 52°28' E 004°09'0 0.0
2014-Oct-10 13:26N 52°28' E 004°09'1 0.8
2014-Oct-10 12:33N 52°28' E 004°08'1010.2
2014-Oct-10 11:33N 52°26' E 003°52'1312.0
2014-Oct-10 10:30N 52°22' E 003°32'1010.2
2014-Oct-10 09:31N 52°15' E 003°20'39 9.1
2014-Oct-10 05:11N 51°46' E 002°37'910.8
2014-Oct-10 04:23N 51°40' E 002°28'911.3
2014-Oct-10 03:33N 51°33' E 002°18'1211.9
2014-Oct-10 02:33N 51°24' E 002°05'7 7.4
2014-Oct-10 01:33N 51°27' E 001°54'7 7.3
2014-Oct-10 00:33N 51°29' E 001°43'9 9.1
2014-Oct-09 23:34N 51°26' E 001°29'8 8.2
2014-Oct-09 22:33N 51°29' E 001°17'1211.4
2014-Oct-09 21:32N 51°29' E 000°59'1312.9
2014-Oct-09 20:33N 51°30' E 000°38'1211.5
2014-Oct-09 19:34N 51°27' E 000°20'2 1.8
2014-Oct-09 18:34N 51°28' E 000°18'0 0.0
2014-Oct-09 17:34N 51°28' E 000°18'0 0.0
2014-Oct-09 14:11N 51°28' E 000°18'0 0.0
2014-Oct-09 13:34N 51°28' E 000°18'0 0.0
2014-Oct-09 12:34N 51°28' E 000°18'0 0.0
2014-Oct-09 11:33N 51°28' E 000°18'0 0.0
2014-Oct-09 10:34N 51°28' E 000°18'0 0.0
2014-Oct-09 09:34N 51°28' E 000°18'0 0.0
2014-Oct-09 08:34N 51°28' E 000°18'0 0.0
2014-Oct-09 07:34N 51°28' E 000°18'0 0.0
2014-Oct-09 06:34N 51°28' E 000°18'0 0.0
2014-Oct-09 05:34N 51°28' E 000°18'0 0.0
2014-Oct-09 04:34N 51°28' E 000°18'0 0.0
2014-Oct-09 03:34N 51°28' E 000°18'0 0.0
2014-Oct-09 02:34N 51°28' E 000°18'0 0.0
2014-Oct-09 01:34N 51°28' E 000°18'0 0.0
2014-Oct-09 00:34N 51°28' E 000°18'0 0.0
2014-Oct-08 23:34N 51°28' E 000°18'0 0.0
2014-Oct-08 22:34N 51°28' E 000°18'0 0.0
2014-Oct-08 21:34N 51°28' E 000°18'0 0.0
2014-Oct-08 20:34N 51°28' E 000°18'0 0.0
2014-Oct-08 19:34N 51°28' E 000°18'0 0.0
2014-Oct-08 18:34N 51°28' E 000°18'0 0.0
2014-Oct-08 17:34N 51°28' E 000°18'0 0.0
2014-Oct-08 16:34N 51°28' E 000°18'0 0.0
2014-Oct-08 15:34N 51°28' E 000°18'0 0.0
2014-Oct-08 14:34N 51°28' E 000°18'0 0.0
2014-Oct-08 13:34N 51°28' E 000°18'0 0.0
2014-Oct-08 12:34N 51°28' E 000°18'0 0.0
2014-Oct-08 11:34N 51°28' E 000°18'0 0.0
2014-Oct-08 10:34N 51°28' E 000°18'0 0.0
2014-Oct-08 09:34N 51°28' E 000°18'0 0.0
2014-Oct-08 08:34N 51°28' E 000°18'0 0.0
2014-Oct-08 07:34N 51°28' E 000°18'0 0.0
2014-Oct-08 06:34N 51°28' E 000°18'0 0.0
2014-Oct-08 05:34N 51°28' E 000°18'0 0.0
2014-Oct-08 04:34N 51°28' E 000°18'0 0.0
2014-Oct-08 03:34N 51°28' E 000°18'0 0.0
2014-Oct-08 02:34N 51°28' E 000°18'0 0.0
2014-Oct-08 01:34N 51°28' E 000°18'0 0.0
2014-Oct-08 00:34N 51°28' E 000°18'0 0.0
2014-Oct-07 23:34N 51°28' E 000°18'0 0.0
2014-Oct-07 22:34N 51°28' E 000°18'0 0.0
2014-Oct-07 21:34N 51°28' E 000°18'0 0.0
2014-Oct-07 20:34N 51°28' E 000°18'0 0.0
2014-Oct-07 19:34N 51°28' E 000°18'0 0.0
2014-Oct-07 18:34N 51°28' E 000°18'0 0.0
2014-Oct-07 17:34N 51°28' E 000°18'0 0.0
2014-Oct-07 16:34N 51°28' E 000°18'0 0.0
2014-Oct-07 15:34N 51°28' E 000°18'0 0.0
2014-Oct-07 14:34N 51°28' E 000°18'0 0.0
2014-Oct-07 13:34N 51°28' E 000°18'0 0.0
2014-Oct-07 12:34N 51°28' E 000°18'3 3.2
2014-Oct-07 11:34N 51°27' E 000°23'9 8.5
2014-Oct-07 10:33N 51°30' E 000°36'1110.8
2014-Oct-07 09:33N 51°29' E 000°53'10 9.8
2014-Oct-07 08:33N 51°29' E 001°09'1010.2
2014-Oct-07 07:33N 51°29' E 001°25'5 5.1
2014-Oct-07 06:33N 51°32' E 001°32'0 0.4
2014-Oct-07 05:33N 51°32' E 001°31'0 0.2
2014-Oct-07 04:33N 51°32' E 001°32'0 0.0
2014-Oct-07 03:33N 51°32' E 001°32'0 0.0
2014-Oct-07 02:33N 51°32' E 001°32'0 0.0
2014-Oct-07 01:33N 51°32' E 001°32'0 0.0
2014-Oct-07 00:33N 51°32' E 001°31'0 0.1
2014-Oct-06 23:33N 51°32' E 001°31'0 0.1
2014-Oct-06 22:33N 51°32' E 001°31'0 0.1
2014-Oct-06 21:33N 51°32' E 001°31'0 0.0
2014-Oct-06 20:33N 51°32' E 001°31'0 0.0
2014-Oct-06 19:33N 51°32' E 001°31'0 0.0
2014-Oct-06 18:33N 51°32' E 001°31'0 0.1
2014-Oct-06 17:33N 51°32' E 001°31'0 0.1
2014-Oct-06 16:33N 51°32' E 001°31'0 0.0
2014-Oct-06 15:33N 51°32' E 001°31'0 0.0
2014-Oct-06 14:33N 51°32' E 001°31'0 0.0
2014-Oct-06 13:27N 51°32' E 001°31'0 0.0
2014-Oct-06 12:30N 51°32' E 001°32'0 0.0
2014-Oct-06 11:33N 51°32' E 001°31'0 0.1
2014-Oct-06 10:33N 51°32' E 001°31'0 0.0
2014-Oct-06 09:33N 51°32' E 001°31'0 0.0
2014-Oct-06 08:33N 51°32' E 001°31'0 0.1
2014-Oct-06 07:33N 51°32' E 001°31'0 0.0
2014-Oct-06 06:33N 51°32' E 001°31'0 0.0
2014-Oct-06 05:33N 51°32' E 001°31'0 0.0
2014-Oct-06 04:33N 51°32' E 001°31'0 0.2
2014-Oct-06 03:33N 51°32' E 001°32'0 0.1
2014-Oct-06 02:33N 51°32' E 001°32'0 0.0
2014-Oct-06 01:33N 51°32' E 001°32'0 0.0
2014-Oct-06 00:33N 51°32' E 001°32'0 0.0
2014-Oct-05 23:33N 51°32' E 001°32'0 0.1
2014-Oct-05 22:33N 51°32' E 001°31'0 0.1
2014-Oct-05 21:33N 51°32' E 001°31'0 0.0
2014-Oct-05 20:33N 51°32' E 001°31'0 0.0
2014-Oct-05 19:33N 51°32' E 001°31'0 0.0
2014-Oct-05 18:33N 51°32' E 001°31'0 0.0
2014-Oct-05 17:33N 51°32' E 001°31'0 0.0
2014-Oct-05 16:33N 51°32' E 001°31'0 0.0
2014-Oct-05 15:33N 51°32' E 001°31'0 0.1
2014-Oct-05 14:33N 51°32' E 001°32'4 4.1
2014-Oct-05 13:33N 51°32' E 001°38'1212.0
2014-Oct-05 12:34N 51°28' E 001°56'9 9.5
2014-Oct-05 11:34N 51°18' E 001°56'1414.1
2014-Oct-05 10:34N 51°08' E 001°42'1514.0
2014-Oct-05 09:29N 50°56' E 001°26'2512.8
2014-Oct-05 07:31N 50°34' E 001°07'1312.5
2014-Oct-05 06:29N 50°29' E 000°48'1413.5
2014-Oct-05 05:27N 50°25' E 000°27'  

Dump ship's entire track history